Conway Springs, KS

7:42 PM CDT on August 31, 2015 (GMT -0500)
WSU Field Station | | Change Station
CLOSE
Current Station
Personal Weather Station
Location: Viola, KS
Elevation: 1332 ft
Nearby Weather Stations

Elev 1332 ft 37.53 °N, 97.67 °W | Updated 4 minutes ago

Clear
Clear
91.1 °F
Feels Like 91 °F
N
0.0
Wind Variable Wind from West
Gusts 0.0 mph

Today
High -- | Low -- °F
--% Chance of Precip.
Yesterday
High -- | Low -- °F
Precip. -- in
7:00 AM 8:01 PM
Waning Gibbous, 92% visible
Pressure 29.85 in
Visibility 10.0 miles
Clouds Few 10000 ft
Heat Index 91 °F
Dew Point 60 °F
Humidity 36%
Rainfall 0.00 in
Snow Depth Not available.
UV 0.0 out of 12
Pollen 11.10 out of 12
Air Quality Not available.
Flu Activity Not available.
METAR KICT 312353Z 12008KT 10SM FEW100 32/18 A2990 RMK AO2 SLP108 T03170183 10344 20306 56004
Pressure 29.85 in
Visibility 10.0 miles
Clouds Few 10000 ft
Heat Index 91 °F
Dew Point 60 °F
Humidity 36%
Rainfall 0.00 in
Snow Depth Not available.
UV 0.0 out of 12
Pollen 11.10 out of 12
Air Quality Not available.
Flu Activity Not available.
METAR KICT 312353Z 12008KT 10SM FEW100 32/18 A2990 RMK AO2 SLP108 T03170183 10344 20306 56004

10-Day Weather Forecast

×

Almanac

Astronomy

Aug. 31, 2015 Rise Set
Actual Time
Civil Twilight
Nautical Twilight
Astronomical Twilight
Moon
Length of Visible Light
Length of Day
Tomorrow will be .
, % of the Moon is Illuminated

Today's Extremes

State Highs State Lows

Community

WunderPhotos

Upload Photos

1,851,411 photos uploaded!

WunderBlogs® & News

Nearby

Air Quality

  Air Quality AQ Index Pollutant
Not available.

Snow Depth

Station Depth Elevation

Earthquake Activity

City Distance Mag. Time & Date
Minimum magnitude displayed is 2.5.

Coastal Water Temperatures

Place Temperature

Stations

Nearby Weather Stations

Station Location Temp. Windchill Dew Point Humidity Wind Precip. Elev Updated Type